Sand Key, FL current weather conditions

sailwx.info

Wind from 180 at 5 knots gusting 6

Air temperature 25.7° C

Last reported at 2014-Nov-24 06:50 UTC.
Time now 2014-Nov-24 08:14 UTC

Location: N 24°27' W 081°53'.
View on Google Maps.

See reports from other nearby stations

  
Tides and Currents Weather Stations Pressure Air Temp Water Temp Dewpoint Dewpoint Depression Visibility Wind Speed Wind Dir Waves Ship Positions
date/time (UTC)wind fromknots sea level pressurealtimeterstation pressurevisibilityair tempwater tempwave heightnotes
2014-Nov-24 06:50 180 5 gusting 6 25.7
2014-Nov-24 05:50 160 11 gusting 12 25.8
2014-Nov-24 04:50 150 12 gusting 13 26.0
2014-Nov-24 03:50 140 12 gusting 13 26.1
2014-Nov-24 02:50 130 13 gusting 13 26.0
2014-Nov-24 01:50 120 12 gusting 13 26.1
2014-Nov-24 00:50 130 9 gusting 11 26.1
2014-Nov-23 23:50 120 8 gusting 9 26.0
2014-Nov-23 22:50 130 9 gusting 12 26.0
2014-Nov-23 21:50 130 12 gusting 13 26.2
2014-Nov-23 20:50 140 13 gusting 15 26.2
2014-Nov-23 19:50 140 13 gusting 14 26.2
2014-Nov-23 18:50 150 13 gusting 14 26.1
2014-Nov-23 17:50 160 13 gusting 15 26.2
2014-Nov-23 16:50 150 12 gusting 13 26.2
2014-Nov-23 15:50 160 13 gusting 15 26.2
2014-Nov-23 14:50 150 14 gusting 17 26.2
2014-Nov-23 13:50 140 17 gusting 19 26.3
2014-Nov-23 12:50 130 17 gusting 20 26.2
2014-Nov-23 11:50 130 15 gusting 18 26.0
2014-Nov-23 10:50 130 13 gusting 15 26.0
2014-Nov-23 09:50 130 14 gusting 17 25.9
2014-Nov-23 08:50 130 18 gusting 20 25.9
2014-Nov-23 07:50 130 18 gusting 20 25.9
2014-Nov-23 06:50 120 18 gusting 20 25.9
2014-Nov-23 05:50 120 20 gusting 25 25.9
2014-Nov-23 04:50 120 20 gusting 25 25.9
2014-Nov-23 03:50 120 18 gusting 21 25.9
2014-Nov-23 02:50 120 18 gusting 20 25.7
2014-Nov-23 01:50 110 19 gusting 22 25.7
2014-Nov-23 00:50 100 18 gusting 20 25.7
2014-Nov-22 23:50 100 18 gusting 20 25.7
2014-Nov-22 22:50 100 20 gusting 22 25.5
2014-Nov-22 21:50 100 20 gusting 24 25.4
2014-Nov-22 20:50 100 19 gusting 22 25.4
2014-Nov-22 19:50 100 20 gusting 22 25.6
2014-Nov-22 18:50 090 19 gusting 21 25.5
2014-Nov-22 17:50 090 19 gusting 21 25.6
2014-Nov-22 16:50 100 20 gusting 22 25.7
2014-Nov-22 15:50 100 21 gusting 25 25.8
2014-Nov-22 14:50 100 21 gusting 25 25.8
2014-Nov-22 13:50 090 20 gusting 26 25.8
2014-Nov-22 12:50 090 24 gusting 27 25.7
2014-Nov-22 11:50 070 18 gusting 20 24.3
2014-Nov-22 10:50 070 18 gusting 20 24.6
2014-Nov-22 09:50 070 18 gusting 22 24.1
2014-Nov-22 08:19 070 17 gusting 19 24.1
2014-Nov-22 08:14 060 17 gusting 19 24.0
2014-Nov-22 08:09 060 17 gusting 19 24.1
2014-Nov-22 08:04 060 17 gusting 20 24.0